createdAt,value
2023-04-16T00:01:24.640Z,102327.09
2023-04-16T00:03:51.239Z,102334.03
2023-04-16T00:06:17.904Z,102322.75
2023-04-16T00:08:44.305Z,102328.84
2023-04-16T00:11:11.498Z,102321.97
2023-04-16T00:13:38.040Z,102327.16
2023-04-16T00:16:04.717Z,102325.44
2023-04-16T00:18:32.016Z,102333.19
2023-04-16T00:20:59.496Z,102328.00
2023-04-16T00:23:26.018Z,102328.84
2023-04-16T00:25:53.844Z,102330.59
2023-04-16T00:28:20.475Z,102331.44
2023-04-16T00:30:47.019Z,102330.53
2023-04-16T00:33:13.510Z,102329.69
2023-04-16T00:35:39.996Z,102330.59
2023-04-16T00:38:06.466Z,102328.06
2023-04-16T00:40:32.958Z,102326.31
2023-04-16T00:42:59.435Z,102329.81
2023-04-16T00:45:25.951Z,102332.34
2023-04-16T00:47:52.547Z,102335.00
2023-04-16T00:50:19.252Z,102330.72
2023-04-16T00:52:49.351Z,102336.75
2023-04-16T00:55:18.640Z,102333.38
2023-04-16T00:57:45.955Z,102331.63
2023-04-16T01:00:13.220Z,102327.28
2023-04-16T01:02:39.982Z,102330.72
2023-04-16T01:05:06.828Z,102329.94
2023-04-16T01:07:33.243Z,102329.03
2023-04-16T01:09:59.665Z,102329.09
2023-04-16T01:12:26.314Z,102326.50
2023-04-16T01:14:52.990Z,102331.69
2023-04-16T01:17:19.378Z,102335.13
2023-04-16T01:19:45.827Z,102331.69
2023-04-16T01:22:12.372Z,102324.78
2023-04-16T01:24:40.441Z,102330.00
2023-04-16T01:27:06.977Z,102334.34
2023-04-16T01:29:33.534Z,102335.19
2023-04-16T01:31:59.986Z,102336.88
2023-04-16T01:34:26.497Z,102346.44
2023-04-16T01:36:52.998Z,102338.66
2023-04-16T01:39:19.737Z,102341.28
2023-04-16T01:41:46.436Z,102331.75
2023-04-16T01:44:13.079Z,102343.03
2023-04-16T01:46:39.802Z,102334.31
2023-04-16T01:49:07.399Z,102334.28
2023-04-16T01:51:34.069Z,102340.34
2023-04-16T01:54:01.072Z,102333.38
2023-04-16T01:56:27.578Z,102338.63
2023-04-16T01:58:54.060Z,102342.09
2023-04-16T02:01:20.722Z,102341.22
2023-04-16T02:03:47.690Z,102338.59
2023-04-16T02:06:14.905Z,102337.72
2023-04-16T02:08:41.768Z,102336.84
2023-04-16T02:11:08.239Z,102342.03
2023-04-16T02:13:34.852Z,102342.00
2023-04-16T02:16:01.386Z,102340.28
2023-04-16T02:18:28.142Z,102340.28
2023-04-16T02:20:54.566Z,102331.63
2023-04-16T02:23:21.003Z,102338.53
2023-04-16T02:25:48.026Z,102332.44
2023-04-16T02:28:16.359Z,102328.13
2023-04-16T02:30:43.635Z,102333.31
2023-04-16T02:33:11.935Z,102335.84
2023-04-16T02:35:39.819Z,102339.31
2023-04-16T02:38:06.862Z,102338.47
2023-04-16T02:40:33.632Z,102335.84
2023-04-16T02:43:00.473Z,102332.34
2023-04-16T02:45:27.102Z,102334.03
2023-04-16T02:47:53.726Z,102334.03
2023-04-16T02:50:20.186Z,102337.53
2023-04-16T02:52:46.663Z,102334.09
2023-04-16T02:55:13.113Z,102342.75
2023-04-16T02:57:39.702Z,102336.69
2023-04-16T03:00:06.934Z,102339.28
2023-04-16T03:02:33.565Z,102340.13
2023-04-16T03:05:00.083Z,102341.88
2023-04-16T03:07:26.670Z,102342.75
2023-04-16T03:09:53.194Z,102339.31
2023-04-16T03:12:19.678Z,102348.81
2023-04-16T03:14:46.238Z,102348.84
2023-04-16T03:17:12.716Z,102357.50
2023-04-16T03:19:39.212Z,102354.03
2023-04-16T03:22:05.767Z,102355.78
2023-04-16T03:24:32.299Z,102362.75
2023-04-16T03:26:59.024Z,102361.00
2023-04-16T03:29:26.774Z,102361.91
2023-04-16T03:31:53.401Z,102359.28
2023-04-16T03:34:19.963Z,102363.59
2023-04-16T03:36:46.469Z,102366.19
2023-04-16T03:39:13.000Z,102357.50
2023-04-16T03:41:39.515Z,102369.63
2023-04-16T03:44:06.243Z,102361.88
2023-04-16T03:46:33.122Z,102362.72
2023-04-16T03:48:59.577Z,102363.59
2023-04-16T03:51:26.462Z,102362.72
2023-04-16T03:53:53.133Z,102373.97
2023-04-16T03:56:19.593Z,102367.09
2023-04-16T03:58:46.076Z,102368.78
2023-04-16T04:01:12.517Z,102368.84
2023-04-16T04:03:39.092Z,102370.59
2023-04-16T04:06:09.603Z,102370.59
2023-04-16T04:08:36.472Z,102371.47
2023-04-16T04:11:02.996Z,102373.25
2023-04-16T04:13:29.429Z,102362.84
2023-04-16T04:15:55.903Z,102366.34
2023-04-16T04:18:22.501Z,102372.34
2023-04-16T04:20:48.993Z,102368.88
2023-04-16T04:23:15.743Z,102371.47
2023-04-16T04:25:42.180Z,102376.63
2023-04-16T04:28:08.676Z,102383.56
2023-04-16T04:30:36.017Z,102376.69
2023-04-16T04:33:02.606Z,102375.72
2023-04-16T04:35:29.167Z,102380.94
2023-04-16T04:37:55.751Z,102394.75
2023-04-16T04:40:22.572Z,102387.88
2023-04-16T04:42:49.160Z,102391.38
2023-04-16T04:45:16.092Z,102391.38
2023-04-16T04:47:42.689Z,102395.72
2023-04-16T04:50:09.821Z,102401.72
2023-04-16T04:52:36.315Z,102399.16
2023-04-16T04:55:02.976Z,102400.00
2023-04-16T04:57:29.469Z,102399.97
2023-04-16T04:59:55.973Z,102417.28
2023-04-16T05:02:22.561Z,102398.31
2023-04-16T05:04:49.146Z,102398.31
2023-04-16T05:07:16.282Z,102406.97
2023-04-16T05:09:42.717Z,102407.84
2023-04-16T05:12:09.186Z,102400.91
2023-04-16T05:14:36.316Z,102400.91
2023-04-16T05:17:02.946Z,102403.50
2023-04-16T05:19:29.711Z,102400.84
2023-04-16T05:21:56.308Z,102401.75
2023-04-16T05:24:23.240Z,102412.09
2023-04-16T05:26:49.750Z,102410.34
2023-04-16T05:29:16.221Z,102404.31
2023-04-16T05:31:42.770Z,102402.59
2023-04-16T05:34:09.284Z,102399.97
2023-04-16T05:36:35.727Z,102412.94
2023-04-16T05:39:02.176Z,102418.13
2023-04-16T05:41:28.674Z,102419.88
2023-04-16T05:43:55.306Z,102417.28
2023-04-16T05:46:21.864Z,102414.63
2023-04-16T05:48:48.313Z,102417.22
2023-04-16T05:51:14.818Z,102418.97
2023-04-16T05:53:41.753Z,102429.31
2023-04-16T05:56:08.633Z,102429.31
2023-04-16T05:58:35.395Z,102424.97
2023-04-16T06:01:01.942Z,102437.94
2023-04-16T06:03:28.542Z,102428.41
2023-04-16T06:05:55.164Z,102430.16
2023-04-16T06:08:21.754Z,102437.06
2023-04-16T06:10:49.060Z,102432.75
2023-04-16T06:13:15.714Z,102433.53
2023-04-16T06:15:42.281Z,102438.78
2023-04-16T06:18:09.001Z,102445.72
2023-04-16T06:20:35.771Z,102440.47
2023-04-16T06:23:02.331Z,102442.16
2023-04-16T06:25:28.872Z,102443.88
2023-04-16T06:27:55.349Z,102453.38
2023-04-16T06:30:21.856Z,102456.91
2023-04-16T06:32:49.703Z,102458.63
2023-04-16T06:35:16.408Z,102460.31
2023-04-16T06:37:42.850Z,102462.91
2023-04-16T06:40:09.836Z,102461.09
2023-04-16T06:42:36.565Z,102461.09
2023-04-16T06:45:03.024Z,102460.25
2023-04-16T06:47:29.483Z,102461.09
2023-04-16T06:49:55.923Z,102469.72
2023-04-16T06:52:22.374Z,102464.50
2023-04-16T06:54:48.832Z,102469.63
2023-04-16T06:57:16.232Z,102467.88
2023-04-16T06:59:42.805Z,102467.00
2023-04-16T07:02:10.599Z,102481.72
2023-04-16T07:04:37.302Z,102486.00
2023-04-16T07:07:03.813Z,102484.28
2023-04-16T07:09:30.315Z,102488.59
2023-04-16T07:11:56.922Z,102485.13
2023-04-16T07:14:23.373Z,102485.09
2023-04-16T07:16:49.926Z,102497.19
2023-04-16T07:19:16.440Z,102488.53
2023-04-16T07:21:43.751Z,102495.47
2023-04-16T07:24:11.708Z,102501.47
2023-04-16T07:26:38.200Z,102493.66
2023-04-16T07:29:04.636Z,102498.81
2023-04-16T07:31:31.132Z,102500.50
2023-04-16T07:33:58.637Z,102507.41
2023-04-16T07:36:25.624Z,102508.25
2023-04-16T07:38:52.107Z,102503.09
2023-04-16T07:41:18.596Z,102514.34
2023-04-16T07:43:45.022Z,102507.38
2023-04-16T07:46:11.596Z,102512.59
2023-04-16T07:48:38.213Z,102513.38
2023-04-16T07:51:04.730Z,102511.63
2023-04-16T07:53:31.208Z,102519.38
2023-04-16T07:55:57.694Z,102522.88
2023-04-16T07:58:24.210Z,102528.91
2023-04-16T08:00:51.493Z,102535.88
2023-04-16T08:03:18.501Z,102531.50
2023-04-16T08:05:45.297Z,102528.88
2023-04-16T08:08:11.772Z,102538.34
2023-04-16T08:10:39.228Z,102539.19
2023-04-16T08:13:05.930Z,102541.75
2023-04-16T08:15:32.485Z,102540.84
2023-04-16T08:18:00.090Z,102543.44
2023-04-16T08:20:26.826Z,102552.88
2023-04-16T08:22:56.197Z,102553.75
2023-04-16T08:25:24.638Z,102555.47
2023-04-16T08:27:51.601Z,102554.63
2023-04-16T08:30:18.153Z,102552.81
2023-04-16T08:32:44.813Z,102556.19
2023-04-16T08:35:11.812Z,102560.50
2023-04-16T08:37:38.731Z,102560.47
2023-04-16T08:40:05.805Z,102560.44
2023-04-16T08:42:36.973Z,102567.31
2023-04-16T08:45:09.163Z,102561.28
2023-04-16T08:47:39.177Z,102571.66
2023-04-16T08:50:06.305Z,102564.66
2023-04-16T08:52:34.333Z,102568.97
2023-04-16T08:55:14.696Z,102574.88
2023-04-16T08:58:01.423Z,102567.06
2023-04-16T09:00:29.669Z,102569.56
2023-04-16T09:02:56.406Z,102576.50
2023-04-16T09:05:25.722Z,102574.75
2023-04-16T09:07:53.411Z,102565.97
2023-04-16T09:10:20.647Z,102572.81
2023-04-16T09:12:47.177Z,102573.59
2023-04-16T09:15:14.120Z,102577.00
2023-04-16T09:17:40.862Z,102578.72
2023-04-16T09:20:09.030Z,102579.56
2023-04-16T09:22:36.758Z,102585.56
2023-04-16T09:25:04.035Z,102582.88
2023-04-16T09:27:31.898Z,102584.66
2023-04-16T09:29:58.808Z,102581.19
2023-04-16T09:32:27.360Z,102583.69
2023-04-16T09:34:58.615Z,102588.03
2023-04-16T09:37:26.870Z,102585.34
2023-04-16T09:39:58.806Z,102592.22
2023-04-16T09:42:27.450Z,102598.22
2023-04-16T09:44:57.242Z,102600.75
2023-04-16T09:47:44.888Z,102604.19
2023-04-16T09:50:19.235Z,102606.84
2023-04-16T09:52:48.868Z,102612.94
2023-04-16T09:55:15.453Z,102613.81
2023-04-16T09:57:41.900Z,102615.56
2023-04-16T10:00:10.213Z,102616.47
2023-04-16T10:02:41.770Z,102611.19
2023-04-16T10:05:09.056Z,102620.69
2023-04-16T10:07:37.336Z,102616.34
2023-04-16T10:10:04.686Z,102610.22
2023-04-16T10:12:33.025Z,102618.81
2023-04-16T10:14:59.700Z,102616.94
2023-04-16T10:17:29.986Z,102610.81
2023-04-16T10:19:57.900Z,102619.47
2023-04-16T10:22:24.497Z,102611.56
2023-04-16T10:24:51.725Z,102620.19
2023-04-16T10:27:19.398Z,102621.09
2023-04-16T10:29:46.728Z,102622.78
2023-04-16T10:32:14.212Z,102621.00
2023-04-16T10:34:41.029Z,102617.56
2023-04-16T10:37:07.471Z,102623.69
2023-04-16T10:39:37.489Z,102623.63
2023-04-16T10:42:12.617Z,102619.28
2023-04-16T10:44:42.798Z,102624.47
2023-04-16T10:47:12.837Z,102624.47
2023-04-16T10:49:39.642Z,102621.81
2023-04-16T10:52:20.442Z,102627.00
2023-04-16T10:54:50.566Z,102628.81
2023-04-16T10:57:19.574Z,102626.16
2023-04-16T10:59:48.710Z,102630.38
2023-04-16T11:02:19.435Z,102628.56
2023-04-16T11:04:48.234Z,102632.00
2023-04-16T11:07:18.099Z,102632.06
2023-04-16T11:09:53.721Z,102632.00
2023-04-16T11:12:27.776Z,102629.28
2023-04-16T11:14:59.504Z,102626.56
2023-04-16T11:17:39.108Z,102624.66
2023-04-16T11:20:20.014Z,102628.16
2023-04-16T11:22:51.482Z,102630.69
2023-04-16T11:25:22.919Z,102632.38
2023-04-16T11:27:50.705Z,102629.66
2023-04-16T11:30:17.853Z,102640.06
2023-04-16T11:32:45.010Z,102634.78
2023-04-16T11:35:17.887Z,102632.22
2023-04-16T11:37:46.023Z,102638.38
2023-04-16T11:40:12.956Z,102642.72
2023-04-16T11:42:41.126Z,102638.38
2023-04-16T11:45:09.584Z,102629.56
2023-04-16T11:47:45.660Z,102643.31
2023-04-16T11:50:26.077Z,102638.28
2023-04-16T11:52:54.165Z,102629.50
2023-04-16T11:55:21.160Z,102640.63
2023-04-16T11:57:47.936Z,102632.75
2023-04-16T12:00:15.099Z,102637.94
2023-04-16T12:02:43.750Z,102642.09
2023-04-16T12:05:30.972Z,102642.94
2023-04-16T12:07:58.844Z,102637.88
2023-04-16T12:10:26.122Z,102643.88
2023-04-16T12:12:52.816Z,102649.84
2023-04-16T12:15:19.328Z,102648.91
2023-04-16T12:17:46.185Z,102648.75
2023-04-16T12:20:15.270Z,102652.06
2023-04-16T12:22:47.561Z,102655.66
2023-04-16T12:25:14.768Z,102659.03
2023-04-16T12:27:55.840Z,102657.19
2023-04-16T12:30:24.587Z,102658.88
2023-04-16T12:32:53.364Z,102662.44
2023-04-16T12:35:31.565Z,102654.81
2023-04-16T12:37:58.077Z,102661.81
2023-04-16T12:40:24.667Z,102658.34
2023-04-16T12:42:51.338Z,102661.81
2023-04-16T12:45:17.836Z,102661.81
2023-04-16T12:47:44.408Z,102663.56
2023-04-16T12:50:11.166Z,102664.34
2023-04-16T12:52:37.634Z,102660.13
2023-04-16T12:55:04.970Z,102659.13
2023-04-16T12:57:31.457Z,102662.56
2023-04-16T12:59:58.713Z,102663.44
2023-04-16T13:02:25.752Z,102656.34
2023-04-16T13:04:53.443Z,102659.72
2023-04-16T13:07:20.748Z,102662.97
2023-04-16T13:09:47.414Z,102655.91
2023-04-16T13:12:13.887Z,102665.28
2023-04-16T13:14:40.852Z,102661.75
2023-04-16T13:17:07.878Z,102661.81
2023-04-16T13:19:34.324Z,102661.03
2023-04-16T13:22:00.828Z,102661.09
2023-04-16T13:24:27.619Z,102659.28
2023-04-16T13:26:56.286Z,102654.06
2023-04-16T13:29:22.996Z,102661.03
2023-04-16T13:31:49.542Z,102657.44
2023-04-16T13:34:16.182Z,102657.50
2023-04-16T13:36:42.726Z,102658.38
2023-04-16T13:39:12.060Z,102660.03
2023-04-16T13:41:38.971Z,102659.97
2023-04-16T13:44:05.780Z,102654.06
2023-04-16T13:46:32.454Z,102666.19
2023-04-16T13:48:59.093Z,102660.88
2023-04-16T13:51:27.053Z,102652.28
2023-04-16T13:53:55.958Z,102658.19
2023-04-16T13:56:22.572Z,102658.06
2023-04-16T13:58:49.333Z,102655.38
2023-04-16T14:01:16.245Z,102657.81
2023-04-16T14:03:43.229Z,102656.94
2023-04-16T14:06:09.743Z,102651.66
2023-04-16T14:08:36.395Z,102662.00
2023-04-16T14:11:02.861Z,102653.22
2023-04-16T14:13:29.381Z,102653.13
2023-04-16T14:15:55.883Z,102659.91
2023-04-16T14:18:22.394Z,102655.47
2023-04-16T14:20:48.916Z,102651.78
2023-04-16T14:23:15.490Z,102656.88
2023-04-16T14:25:42.013Z,102653.44
2023-04-16T14:28:09.283Z,102657.53
2023-04-16T14:30:35.776Z,102651.31
2023-04-16T14:33:04.974Z,102647.63
2023-04-16T14:35:32.684Z,102651.00
2023-04-16T14:37:59.258Z,102655.34
2023-04-16T14:40:25.889Z,102654.84
2023-04-16T14:42:52.374Z,102655.81
2023-04-16T14:45:19.095Z,102665.47
2023-04-16T14:47:47.704Z,102658.00
2023-04-16T14:50:15.625Z,102661.41
2023-04-16T14:52:42.250Z,102653.53
2023-04-16T14:55:08.958Z,102648.16
2023-04-16T14:57:35.574Z,102647.19
2023-04-16T15:00:02.234Z,102647.88
2023-04-16T15:02:29.611Z,102644.50
2023-04-16T15:04:56.320Z,102645.53
2023-04-16T15:07:22.824Z,102637.53
2023-04-16T15:09:49.255Z,102650.50
2023-04-16T15:12:17.498Z,102645.84
2023-04-16T15:14:45.637Z,102646.63
2023-04-16T15:17:12.268Z,102640.22
2023-04-16T15:19:38.787Z,102638.44
2023-04-16T15:22:05.213Z,102638.47
2023-04-16T15:24:31.655Z,102647.22
2023-04-16T15:26:58.152Z,102646.09
2023-04-16T15:29:24.726Z,102645.94
2023-04-16T15:31:51.157Z,102641.63
2023-04-16T15:34:17.619Z,102640.00
2023-04-16T15:36:44.076Z,102641.84
2023-04-16T15:39:10.900Z,102642.81
2023-04-16T15:41:50.080Z,102652.59
2023-04-16T15:44:25.929Z,102657.13
2023-04-16T15:46:52.707Z,102644.09
2023-04-16T15:49:19.206Z,102648.66
2023-04-16T15:51:46.255Z,102651.31
2023-04-16T15:54:12.745Z,102639.97
2023-04-16T15:56:39.569Z,102644.28
2023-04-16T15:59:06.071Z,102650.28
2023-04-16T16:01:32.540Z,102646.75
2023-04-16T16:03:59.153Z,102652.03
2023-04-16T16:06:27.124Z,102642.56
2023-04-16T16:08:54.493Z,102644.19
2023-04-16T16:11:21.817Z,102637.25
2023-04-16T16:13:48.393Z,102641.78
2023-04-16T16:16:15.375Z,102645.28
2023-04-16T16:18:42.240Z,102647.97
2023-04-16T16:21:08.768Z,102649.75
2023-04-16T16:23:35.330Z,102651.50
2023-04-16T16:26:01.815Z,102651.59
2023-04-16T16:28:28.306Z,102652.69
2023-04-16T16:30:55.627Z,102642.25
2023-04-16T16:33:22.522Z,102656.31
2023-04-16T16:35:48.966Z,102640.75
2023-04-16T16:38:15.761Z,102651.41
2023-04-16T16:40:42.197Z,102646.47
2023-04-16T16:43:08.645Z,102645.66
2023-04-16T16:45:35.318Z,102646.44
2023-04-16T16:48:03.872Z,102647.38
2023-04-16T16:50:33.414Z,102644.00
2023-04-16T16:53:00.068Z,102651.00
2023-04-16T16:55:26.746Z,102646.69
2023-04-16T16:57:53.302Z,102651.91
2023-04-16T17:00:21.462Z,102655.50
2023-04-16T17:02:51.060Z,102660.72
2023-04-16T17:05:17.959Z,102661.75
2023-04-16T17:07:44.483Z,102662.66
2023-04-16T17:10:13.254Z,102659.13
2023-04-16T17:12:39.790Z,102663.44
2023-04-16T17:15:06.758Z,102665.28
2023-04-16T17:17:33.423Z,102661.13
2023-04-16T17:20:01.084Z,102665.75
2023-04-16T17:22:27.608Z,102668.53
2023-04-16T17:24:54.353Z,102673.00
2023-04-16T17:27:20.980Z,102671.31
2023-04-16T17:29:47.452Z,102674.78
2023-04-16T17:32:14.026Z,102677.56
2023-04-16T17:34:40.580Z,102684.56
2023-04-16T17:37:07.088Z,102686.28
2023-04-16T17:39:33.586Z,102689.84
2023-04-16T17:42:01.299Z,102690.06
2023-04-16T17:44:28.075Z,102696.97
2023-04-16T17:46:54.569Z,102697.88
2023-04-16T17:49:21.199Z,102696.13
2023-04-16T17:51:47.785Z,102702.25
2023-04-16T17:54:14.261Z,102704.06
2023-04-16T17:56:40.820Z,102705.00
2023-04-16T17:59:07.238Z,102705.00
2023-04-16T18:01:33.837Z,102709.50
2023-04-16T18:04:00.536Z,102704.38
2023-04-16T18:06:27.638Z,102713.09
2023-04-16T18:08:54.077Z,102713.09
2023-04-16T18:11:21.131Z,102720.22
2023-04-16T18:13:47.695Z,102719.50
2023-04-16T18:16:16.560Z,102715.28
2023-04-16T18:18:43.779Z,102722.19
2023-04-16T18:21:10.484Z,102720.41
2023-04-16T18:23:36.957Z,102720.41
2023-04-16T18:26:03.811Z,102723.88
2023-04-16T18:28:30.255Z,102719.53
2023-04-16T18:30:58.904Z,102726.53
2023-04-16T18:33:52.589Z,102719.66
2023-04-16T18:36:12.288Z,102737.13
2023-04-16T18:38:49.417Z,102743.28
2023-04-16T18:41:20.413Z,102744.19
2023-04-16T18:43:47.504Z,102736.38
2023-04-16T18:46:14.726Z,102739.00
2023-04-16T18:48:41.888Z,102746.84
2023-04-16T18:51:08.376Z,102752.19
2023-04-16T18:53:36.013Z,102750.50
2023-04-16T18:56:02.455Z,102751.41
2023-04-16T18:58:29.169Z,102754.06
2023-04-16T19:00:58.432Z,102761.81
2023-04-16T19:03:27.226Z,102753.16
2023-04-16T19:05:53.780Z,102751.41
2023-04-16T19:08:20.448Z,102760.13
2023-04-16T19:10:50.371Z,102766.19
2023-04-16T19:13:17.106Z,102752.31
2023-04-16T19:15:43.826Z,102761.78
2023-04-16T19:18:10.358Z,102759.16
2023-04-16T19:20:37.578Z,102765.34
2023-04-16T19:23:05.674Z,102762.78
2023-04-16T19:25:32.661Z,102774.16
2023-04-16T19:27:59.347Z,102769.03
2023-04-16T19:30:26.447Z,102769.13
2023-04-16T19:32:55.172Z,102768.22
2023-04-16T19:35:22.203Z,102765.63
2023-04-16T19:37:48.763Z,102764.84
2023-04-16T19:40:15.351Z,102763.19
2023-04-16T19:42:41.916Z,102765.03
2023-04-16T19:45:08.705Z,102768.53
2023-04-16T19:47:35.572Z,102771.97
2023-04-16T19:50:02.151Z,102764.22
2023-04-16T19:52:28.687Z,102771.16
2023-04-16T19:54:55.146Z,102766.81
2023-04-16T19:57:21.573Z,102769.38
2023-04-16T19:59:48.042Z,102770.22
2023-04-16T20:02:14.555Z,102774.56
2023-04-16T20:04:40.993Z,102765.06
2023-04-16T20:07:07.397Z,102776.38
2023-04-16T20:09:33.862Z,102778.13
2023-04-16T20:12:00.758Z,102773.91
2023-04-16T20:14:27.249Z,102776.50
2023-04-16T20:16:53.750Z,102783.44
2023-04-16T20:19:20.199Z,102785.25
2023-04-16T20:21:46.681Z,102773.03
2023-04-16T20:24:15.251Z,102775.63
2023-04-16T20:26:41.825Z,102777.34
2023-04-16T20:29:09.996Z,102774.75
2023-04-16T20:31:36.742Z,102770.56
2023-04-16T20:34:03.804Z,102770.66
2023-04-16T20:36:30.430Z,102776.72
2023-04-16T20:38:56.908Z,102774.16
2023-04-16T20:41:25.143Z,102775.06
2023-04-16T20:43:52.882Z,102766.41
2023-04-16T20:46:24.690Z,102768.22
2023-04-16T20:48:51.859Z,102760.41
2023-04-16T20:51:18.355Z,102765.56
2023-04-16T20:53:44.846Z,102766.41
2023-04-16T20:56:14.655Z,102762.94
2023-04-16T20:58:41.750Z,102761.16
2023-04-16T21:01:08.206Z,102757.75
2023-04-16T21:03:34.862Z,102756.00
2023-04-16T21:06:01.863Z,102754.38
2023-04-16T21:08:28.330Z,102754.38
2023-04-16T21:10:54.794Z,102764.88
2023-04-16T21:13:21.731Z,102751.91
2023-04-16T21:15:48.452Z,102754.47
2023-04-16T21:18:16.967Z,102756.13
2023-04-16T21:20:43.437Z,102754.41
2023-04-16T21:23:09.849Z,102753.56
2023-04-16T21:25:36.814Z,102761.38
2023-04-16T21:28:03.275Z,102757.94
2023-04-16T21:30:29.720Z,102760.56
2023-04-16T21:32:56.225Z,102751.13
2023-04-16T21:35:22.752Z,102747.72
2023-04-16T21:37:49.147Z,102756.38
2023-04-16T21:40:15.909Z,102754.69
2023-04-16T21:42:42.535Z,102755.59
2023-04-16T21:45:10.137Z,102751.22
2023-04-16T21:47:37.536Z,102759.03
2023-04-16T21:50:04.356Z,102760.81
2023-04-16T21:52:32.760Z,102763.44
2023-04-16T21:55:00.156Z,102766.06
2023-04-16T21:57:26.698Z,102765.22
2023-04-16T21:59:53.154Z,102761.78
2023-04-16T22:02:19.719Z,102763.56
2023-04-16T22:04:46.312Z,102762.69
2023-04-16T22:07:12.822Z,102770.53
2023-04-16T22:09:40.358Z,102765.38
2023-04-16T22:12:10.101Z,102761.03
2023-04-16T22:14:39.223Z,102759.28
2023-04-16T22:17:09.363Z,102756.63
2023-04-16T22:19:37.226Z,102750.63
2023-04-16T22:22:03.730Z,102751.47
2023-04-16T22:24:30.401Z,102760.13
2023-04-16T22:26:57.185Z,102755.84
2023-04-16T22:29:23.588Z,102757.63
2023-04-16T22:31:50.019Z,102759.38
2023-04-16T22:34:16.513Z,102752.53
2023-04-16T22:36:43.020Z,102762.13
2023-04-16T22:39:09.673Z,102752.66
2023-04-16T22:41:36.601Z,102763.09
2023-04-16T22:44:03.634Z,102757.03
2023-04-16T22:46:30.943Z,102765.66
2023-04-16T22:48:57.874Z,102762.22
2023-04-16T22:51:24.502Z,102755.31
2023-04-16T22:53:51.843Z,102757.91
2023-04-16T22:56:21.787Z,102757.06
2023-04-16T22:58:49.406Z,102753.56
2023-04-16T23:01:16.942Z,102752.72
2023-04-16T23:03:43.483Z,102754.47
2023-04-16T23:06:09.987Z,102760.56
2023-04-16T23:08:36.515Z,102763.16
2023-04-16T23:11:02.939Z,102758.88
2023-04-16T23:13:29.345Z,102768.41
2023-04-16T23:15:56.024Z,102760.56
2023-04-16T23:18:22.530Z,102761.41
2023-04-16T23:20:53.164Z,102765.75
2023-04-16T23:23:20.008Z,102759.75
2023-04-16T23:25:46.386Z,102773.59
2023-04-16T23:28:12.853Z,102762.41
2023-04-16T23:30:39.325Z,102765.91
2023-04-16T23:33:05.891Z,102773.75
2023-04-16T23:35:32.387Z,102772.88
2023-04-16T23:37:58.874Z,102773.75
2023-04-16T23:40:25.660Z,102780.66
2023-04-16T23:42:52.166Z,102773.75
2023-04-16T23:45:18.619Z,102776.34
2023-04-16T23:47:45.229Z,102782.34
2023-04-16T23:50:11.793Z,102772.00
2023-04-16T23:52:38.384Z,102781.53
2023-04-16T23:55:05.215Z,102775.47
2023-04-16T23:57:31.633Z,102778.97
2023-04-16T23:59:58.076Z,102772.88
